sensor_id;sensor_type;location;lat;lon;timestamp;temperature;humidity
21047;DHT22;10682;50.874;3.656;2023-07-13T00:00:31;16.00;99.90
21047;DHT22;10682;50.874;3.656;2023-07-13T00:02:59;16.00;99.90
21047;DHT22;10682;50.874;3.656;2023-07-13T00:05:26;16.00;99.90
21047;DHT22;10682;50.874;3.656;2023-07-13T00:07:54;16.00;99.90
21047;DHT22;10682;50.874;3.656;2023-07-13T00:10:21;16.00;99.90
21047;DHT22;10682;50.874;3.656;2023-07-13T00:12:49;15.90;99.90
21047;DHT22;10682;50.874;3.656;2023-07-13T00:15:22;16.00;99.90
21047;DHT22;10682;50.874;3.656;2023-07-13T00:17:52;15.90;99.90
21047;DHT22;10682;50.874;3.656;2023-07-13T00:20:24;15.90;99.90
21047;DHT22;10682;50.874;3.656;2023-07-13T00:22:53;15.90;99.90
21047;DHT22;10682;50.874;3.656;2023-07-13T00:25:21;15.90;99.90
21047;DHT22;10682;50.874;3.656;2023-07-13T00:27:51;15.80;99.90
21047;DHT22;10682;50.874;3.656;2023-07-13T00:30:18;15.80;99.90
21047;DHT22;10682;50.874;3.656;2023-07-13T00:32:45;15.80;99.90
21047;DHT22;10682;50.874;3.656;2023-07-13T00:35:14;15.80;99.90
21047;DHT22;10682;50.874;3.656;2023-07-13T00:37:42;15.80;99.90
21047;DHT22;10682;50.874;3.656;2023-07-13T00:40:11;15.80;99.90
21047;DHT22;10682;50.874;3.656;2023-07-13T00:42:40;15.80;99.90
21047;DHT22;10682;50.874;3.656;2023-07-13T00:47:41;15.80;99.90
21047;DHT22;10682;50.874;3.656;2023-07-13T00:50:13;15.80;99.90
21047;DHT22;10682;50.874;3.656;2023-07-13T00:52:45;15.70;99.90
21047;DHT22;10682;50.874;3.656;2023-07-13T00:55:17;15.70;99.90
21047;DHT22;10682;50.874;3.656;2023-07-13T00:57:45;15.70;99.90
21047;DHT22;10682;50.874;3.656;2023-07-13T01:00:13;15.60;99.90
21047;DHT22;10682;50.874;3.656;2023-07-13T01:02:43;15.60;99.90
21047;DHT22;10682;50.874;3.656;2023-07-13T01:05:19;15.50;99.90
21047;DHT22;10682;50.874;3.656;2023-07-13T01:07:49;15.50;99.90
21047;DHT22;10682;50.874;3.656;2023-07-13T01:10:22;15.50;99.90
21047;DHT22;10682;50.874;3.656;2023-07-13T01:12:53;15.50;99.90
21047;DHT22;10682;50.874;3.656;2023-07-13T01:15:40;15.50;99.90
21047;DHT22;10682;50.874;3.656;2023-07-13T01:18:20;15.50;99.90
21047;DHT22;10682;50.874;3.656;2023-07-13T01:20:53;15.50;99.90
21047;DHT22;10682;50.874;3.656;2023-07-13T01:23:30;15.50;99.90
21047;DHT22;10682;50.874;3.656;2023-07-13T01:25:58;15.50;99.90
21047;DHT22;10682;50.874;3.656;2023-07-13T01:28:28;15.50;99.90
21047;DHT22;10682;50.874;3.656;2023-07-13T01:30:57;15.50;99.90
21047;DHT22;10682;50.874;3.656;2023-07-13T01:33:28;15.40;99.90
21047;DHT22;10682;50.874;3.656;2023-07-13T01:35:55;15.40;99.90
21047;DHT22;10682;50.874;3.656;2023-07-13T01:38:24;15.40;99.90
21047;DHT22;10682;50.874;3.656;2023-07-13T01:40:52;15.50;99.90
21047;DHT22;10682;50.874;3.656;2023-07-13T01:43:20;15.40;99.90
21047;DHT22;10682;50.874;3.656;2023-07-13T01:45:48;15.40;99.90
21047;DHT22;10682;50.874;3.656;2023-07-13T01:48:15;15.40;99.90
21047;DHT22;10682;50.874;3.656;2023-07-13T01:50:42;15.50;99.90
21047;DHT22;10682;50.874;3.656;2023-07-13T01:53:10;15.40;99.90
21047;DHT22;10682;50.874;3.656;2023-07-13T01:55:39;15.40;99.90
21047;DHT22;10682;50.874;3.656;2023-07-13T01:58:06;15.40;99.90
21047;DHT22;10682;50.874;3.656;2023-07-13T02:00:33;15.40;99.90
21047;DHT22;10682;50.874;3.656;2023-07-13T02:03:00;15.40;99.90
21047;DHT22;10682;50.874;3.656;2023-07-13T02:05:28;15.30;99.90
21047;DHT22;10682;50.874;3.656;2023-07-13T02:07:55;15.30;99.90
21047;DHT22;10682;50.874;3.656;2023-07-13T02:10:22;15.30;99.90
21047;DHT22;10682;50.874;3.656;2023-07-13T02:12:50;15.30;99.90
21047;DHT22;10682;50.874;3.656;2023-07-13T02:15:17;15.30;99.90
21047;DHT22;10682;50.874;3.656;2023-07-13T02:17:45;15.30;99.90
21047;DHT22;10682;50.874;3.656;2023-07-13T02:20:13;15.30;99.90
21047;DHT22;10682;50.874;3.656;2023-07-13T02:22:40;15.20;99.90
21047;DHT22;10682;50.874;3.656;2023-07-13T02:25:07;15.30;99.90
21047;DHT22;10682;50.874;3.656;2023-07-13T02:27:35;15.30;99.90
21047;DHT22;10682;50.874;3.656;2023-07-13T02:30:02;15.30;99.90
21047;DHT22;10682;50.874;3.656;2023-07-13T02:32:29;15.30;99.90
21047;DHT22;10682;50.874;3.656;2023-07-13T02:34:57;15.30;99.90
21047;DHT22;10682;50.874;3.656;2023-07-13T02:37:24;15.30;99.90
21047;DHT22;10682;50.874;3.656;2023-07-13T02:39:51;15.20;99.90
21047;DHT22;10682;50.874;3.656;2023-07-13T02:42:18;15.20;99.90
21047;DHT22;10682;50.874;3.656;2023-07-13T02:44:45;15.20;99.90
21047;DHT22;10682;50.874;3.656;2023-07-13T02:47:13;15.20;99.90
21047;DHT22;10682;50.874;3.656;2023-07-13T02:49:42;15.20;99.90
21047;DHT22;10682;50.874;3.656;2023-07-13T02:52:09;15.20;99.90
21047;DHT22;10682;50.874;3.656;2023-07-13T02:54:36;15.10;99.90
21047;DHT22;10682;50.874;3.656;2023-07-13T02:57:03;15.10;99.90
21047;DHT22;10682;50.874;3.656;2023-07-13T02:59:30;15.10;99.90
21047;DHT22;10682;50.874;3.656;2023-07-13T03:01:58;15.10;99.90
21047;DHT22;10682;50.874;3.656;2023-07-13T03:04:25;15.10;99.90
21047;DHT22;10682;50.874;3.656;2023-07-13T03:06:52;15.00;99.90
21047;DHT22;10682;50.874;3.656;2023-07-13T03:09:19;15.00;99.90
21047;DHT22;10682;50.874;3.656;2023-07-13T03:11:46;15.00;99.90
21047;DHT22;10682;50.874;3.656;2023-07-13T03:14:13;15.00;99.90
21047;DHT22;10682;50.874;3.656;2023-07-13T03:16:40;14.90;99.90
21047;DHT22;10682;50.874;3.656;2023-07-13T03:19:07;14.90;99.90
21047;DHT22;10682;50.874;3.656;2023-07-13T03:21:34;14.90;99.90
21047;DHT22;10682;50.874;3.656;2023-07-13T03:24:01;14.90;99.90
21047;DHT22;10682;50.874;3.656;2023-07-13T03:26:29;14.90;99.90
21047;DHT22;10682;50.874;3.656;2023-07-13T03:28:56;14.90;99.90
21047;DHT22;10682;50.874;3.656;2023-07-13T03:31:26;14.90;99.90
21047;DHT22;10682;50.874;3.656;2023-07-13T03:33:56;14.90;99.90
21047;DHT22;10682;50.874;3.656;2023-07-13T03:36:27;15.00;99.90
21047;DHT22;10682;50.874;3.656;2023-07-13T03:38:59;15.00;99.90
21047;DHT22;10682;50.874;3.656;2023-07-13T03:41:27;15.00;99.90
21047;DHT22;10682;50.874;3.656;2023-07-13T03:43:54;14.90;99.90
21047;DHT22;10682;50.874;3.656;2023-07-13T03:46:21;14.90;99.90
21047;DHT22;10682;50.874;3.656;2023-07-13T03:48:49;14.90;99.90
21047;DHT22;10682;50.874;3.656;2023-07-13T03:51:16;14.90;99.90
21047;DHT22;10682;50.874;3.656;2023-07-13T03:53:45;14.90;99.90
21047;DHT22;10682;50.874;3.656;2023-07-13T03:56:14;14.80;99.90
21047;DHT22;10682;50.874;3.656;2023-07-13T03:58:44;14.80;99.90
21047;DHT22;10682;50.874;3.656;2023-07-13T04:01:13;14.80;99.90
21047;DHT22;10682;50.874;3.656;2023-07-13T04:03:41;14.80;99.90
21047;DHT22;10682;50.874;3.656;2023-07-13T04:06:20;14.80;99.90
21047;DHT22;10682;50.874;3.656;2023-07-13T04:08:53;14.80;99.90
21047;DHT22;10682;50.874;3.656;2023-07-13T04:11:25;14.80;99.90
21047;DHT22;10682;50.874;3.656;2023-07-13T04:13:53;14.80;99.90
21047;DHT22;10682;50.874;3.656;2023-07-13T04:16:21;14.80;99.90
21047;DHT22;10682;50.874;3.656;2023-07-13T04:18:49;14.80;99.90
21047;DHT22;10682;50.874;3.656;2023-07-13T04:21:16;14.90;99.90
21047;DHT22;10682;50.874;3.656;2023-07-13T04:23:44;14.90;99.90
21047;DHT22;10682;50.874;3.656;2023-07-13T04:26:11;14.90;99.90
21047;DHT22;10682;50.874;3.656;2023-07-13T04:28:38;15.00;99.90
21047;DHT22;10682;50.874;3.656;2023-07-13T04:31:05;15.00;99.90
21047;DHT22;10682;50.874;3.656;2023-07-13T04:33:33;15.10;99.90
21047;DHT22;10682;50.874;3.656;2023-07-13T04:36:00;15.10;99.90
21047;DHT22;10682;50.874;3.656;2023-07-13T04:38:30;15.20;99.90
21047;DHT22;10682;50.874;3.656;2023-07-13T04:41:04;15.20;99.90
21047;DHT22;10682;50.874;3.656;2023-07-13T04:43:33;15.30;99.90
21047;DHT22;10682;50.874;3.656;2023-07-13T04:46:05;15.30;99.90
21047;DHT22;10682;50.874;3.656;2023-07-13T04:48:44;15.30;99.90
21047;DHT22;10682;50.874;3.656;2023-07-13T04:51:12;15.40;99.90
21047;DHT22;10682;50.874;3.656;2023-07-13T04:53:39;15.40;99.90
21047;DHT22;10682;50.874;3.656;2023-07-13T04:56:06;15.40;99.90
21047;DHT22;10682;50.874;3.656;2023-07-13T04:58:34;15.50;99.90
21047;DHT22;10682;50.874;3.656;2023-07-13T05:01:03;15.50;99.90
21047;DHT22;10682;50.874;3.656;2023-07-13T05:03:31;15.50;99.90
21047;DHT22;10682;50.874;3.656;2023-07-13T05:06:04;15.50;99.90
21047;DHT22;10682;50.874;3.656;2023-07-13T05:08:33;15.50;99.90
21047;DHT22;10682;50.874;3.656;2023-07-13T05:11:01;15.60;99.90
21047;DHT22;10682;50.874;3.656;2023-07-13T05:13:31;15.60;99.90
21047;DHT22;10682;50.874;3.656;2023-07-13T05:16:07;15.70;99.90
21047;DHT22;10682;50.874;3.656;2023-07-13T05:18:35;15.70;99.90
21047;DHT22;10682;50.874;3.656;2023-07-13T05:21:07;15.70;99.90
21047;DHT22;10682;50.874;3.656;2023-07-13T05:23:36;15.80;99.90
21047;DHT22;10682;50.874;3.656;2023-07-13T05:26:04;15.80;99.90
21047;DHT22;10682;50.874;3.656;2023-07-13T05:28:36;15.80;99.90
21047;DHT22;10682;50.874;3.656;2023-07-13T05:31:04;15.90;99.90
21047;DHT22;10682;50.874;3.656;2023-07-13T05:33:32;15.90;99.90
21047;DHT22;10682;50.874;3.656;2023-07-13T05:35:59;15.90;99.90
21047;DHT22;10682;50.874;3.656;2023-07-13T05:38:28;16.00;99.90
21047;DHT22;10682;50.874;3.656;2023-07-13T05:40:55;16.00;99.90
21047;DHT22;10682;50.874;3.656;2023-07-13T05:43:23;16.00;99.90
21047;DHT22;10682;50.874;3.656;2023-07-13T05:45:55;16.10;99.90
21047;DHT22;10682;50.874;3.656;2023-07-13T05:48:23;16.10;99.90
21047;DHT22;10682;50.874;3.656;2023-07-13T05:50:50;16.20;99.90
21047;DHT22;10682;50.874;3.656;2023-07-13T05:53:17;16.20;99.90
21047;DHT22;10682;50.874;3.656;2023-07-13T05:55:46;16.20;99.90
21047;DHT22;10682;50.874;3.656;2023-07-13T05:58:18;16.20;99.90
21047;DHT22;10682;50.874;3.656;2023-07-13T06:00:46;16.30;99.90
21047;DHT22;10682;50.874;3.656;2023-07-13T06:03:14;16.30;99.90
21047;DHT22;10682;50.874;3.656;2023-07-13T06:05:42;16.30;99.90
21047;DHT22;10682;50.874;3.656;2023-07-13T06:08:09;16.40;99.90
21047;DHT22;10682;50.874;3.656;2023-07-13T06:10:36;16.50;99.90
21047;DHT22;10682;50.874;3.656;2023-07-13T06:13:03;16.50;99.90
21047;DHT22;10682;50.874;3.656;2023-07-13T06:15:30;16.50;99.90
21047;DHT22;10682;50.874;3.656;2023-07-13T06:17:57;16.50;99.90
21047;DHT22;10682;50.874;3.656;2023-07-13T06:20:24;16.60;99.90
21047;DHT22;10682;50.874;3.656;2023-07-13T06:22:51;16.70;99.90
21047;DHT22;10682;50.874;3.656;2023-07-13T06:25:19;16.80;99.90
21047;DHT22;10682;50.874;3.656;2023-07-13T06:27:46;16.80;99.90
21047;DHT22;10682;50.874;3.656;2023-07-13T06:30:13;16.90;99.90
21047;DHT22;10682;50.874;3.656;2023-07-13T06:32:40;17.00;99.90
21047;DHT22;10682;50.874;3.656;2023-07-13T06:35:07;17.10;99.90
21047;DHT22;10682;50.874;3.656;2023-07-13T06:37:35;17.30;99.90
21047;DHT22;10682;50.874;3.656;2023-07-13T06:40:02;17.30;99.90
21047;DHT22;10682;50.874;3.656;2023-07-13T06:42:30;17.30;99.90
21047;DHT22;10682;50.874;3.656;2023-07-13T06:44:57;17.50;99.90
21047;DHT22;10682;50.874;3.656;2023-07-13T06:47:24;17.50;99.90
21047;DHT22;10682;50.874;3.656;2023-07-13T06:49:51;17.70;99.90
21047;DHT22;10682;50.874;3.656;2023-07-13T06:52:18;17.90;99.90
21047;DHT22;10682;50.874;3.656;2023-07-13T06:54:45;18.00;99.90
21047;DHT22;10682;50.874;3.656;2023-07-13T06:57:12;18.00;99.90
21047;DHT22;10682;50.874;3.656;2023-07-13T06:59:40;18.00;99.90
21047;DHT22;10682;50.874;3.656;2023-07-13T07:02:09;18.00;99.90
21047;DHT22;10682;50.874;3.656;2023-07-13T07:04:37;18.00;99.90
21047;DHT22;10682;50.874;3.656;2023-07-13T07:07:04;18.10;99.90
21047;DHT22;10682;50.874;3.656;2023-07-13T07:09:31;18.30;99.90
21047;DHT22;10682;50.874;3.656;2023-07-13T07:11:58;18.50;99.90
21047;DHT22;10682;50.874;3.656;2023-07-13T07:14:30;18.60;99.90
21047;DHT22;10682;50.874;3.656;2023-07-13T07:16:57;18.60;99.90
21047;DHT22;10682;50.874;3.656;2023-07-13T07:19:27;18.60;99.90
21047;DHT22;10682;50.874;3.656;2023-07-13T07:21:56;18.60;99.90
21047;DHT22;10682;50.874;3.656;2023-07-13T07:24:23;18.60;99.90
21047;DHT22;10682;50.874;3.656;2023-07-13T07:26:50;18.50;99.90
21047;DHT22;10682;50.874;3.656;2023-07-13T07:29:20;18.60;99.90
21047;DHT22;10682;50.874;3.656;2023-07-13T07:31:52;18.70;99.90
21047;DHT22;10682;50.874;3.656;2023-07-13T07:34:22;18.70;99.90
21047;DHT22;10682;50.874;3.656;2023-07-13T07:36:49;18.70;99.90
21047;DHT22;10682;50.874;3.656;2023-07-13T07:39:19;18.60;99.90
21047;DHT22;10682;50.874;3.656;2023-07-13T07:41:46;18.60;99.90
21047;DHT22;10682;50.874;3.656;2023-07-13T07:44:16;18.60;99.90
21047;DHT22;10682;50.874;3.656;2023-07-13T07:46:44;18.60;99.90
21047;DHT22;10682;50.874;3.656;2023-07-13T07:49:11;18.60;99.90
21047;DHT22;10682;50.874;3.656;2023-07-13T07:51:38;18.60;99.90
21047;DHT22;10682;50.874;3.656;2023-07-13T07:54:05;18.70;99.90
21047;DHT22;10682;50.874;3.656;2023-07-13T07:56:33;18.60;99.90
21047;DHT22;10682;50.874;3.656;2023-07-13T07:59:03;18.60;99.90
21047;DHT22;10682;50.874;3.656;2023-07-13T08:01:33;18.60;99.90
21047;DHT22;10682;50.874;3.656;2023-07-13T08:04:03;18.70;99.90
21047;DHT22;10682;50.874;3.656;2023-07-13T08:06:33;18.90;99.90
21047;DHT22;10682;50.874;3.656;2023-07-13T08:09:03;19.10;99.90
21047;DHT22;10682;50.874;3.656;2023-07-13T08:11:31;19.40;99.90
21047;DHT22;10682;50.874;3.656;2023-07-13T08:14:01;19.80;99.90
21047;DHT22;10682;50.874;3.656;2023-07-13T08:16:28;20.00;99.90
21047;DHT22;10682;50.874;3.656;2023-07-13T08:18:55;20.10;99.90
21047;DHT22;10682;50.874;3.656;2023-07-13T08:21:22;20.20;99.90
21047;DHT22;10682;50.874;3.656;2023-07-13T08:23:49;20.20;99.90
21047;DHT22;10682;50.874;3.656;2023-07-13T08:26:17;20.20;99.90
21047;DHT22;10682;50.874;3.656;2023-07-13T08:28:44;20.30;99.90
21047;DHT22;10682;50.874;3.656;2023-07-13T08:31:11;20.50;99.90
21047;DHT22;10682;50.874;3.656;2023-07-13T08:33:39;20.60;99.90
21047;DHT22;10682;50.874;3.656;2023-07-13T08:36:07;20.80;99.90
21047;DHT22;10682;50.874;3.656;2023-07-13T08:38:34;20.90;99.90
21047;DHT22;10682;50.874;3.656;2023-07-13T08:41:10;21.00;99.90
21047;DHT22;10682;50.874;3.656;2023-07-13T08:43:41;21.00;99.90
21047;DHT22;10682;50.874;3.656;2023-07-13T08:46:38;21.10;99.90
21047;DHT22;10682;50.874;3.656;2023-07-13T08:49:16;21.50;99.90
21047;DHT22;10682;50.874;3.656;2023-07-13T08:51:53;21.60;99.90
21047;DHT22;10682;50.874;3.656;2023-07-13T08:54:28;21.50;99.90
21047;DHT22;10682;50.874;3.656;2023-07-13T08:57:18;21.30;99.90
21047;DHT22;10682;50.874;3.656;2023-07-13T08:59:47;21.40;99.90
21047;DHT22;10682;50.874;3.656;2023-07-13T09:02:27;21.40;99.90
21047;DHT22;10682;50.874;3.656;2023-07-13T09:05:02;21.60;99.90
21047;DHT22;10682;50.874;3.656;2023-07-13T09:10:44;21.40;99.90
21047;DHT22;10682;50.874;3.656;2023-07-13T09:15:51;21.70;99.90
21047;DHT22;10682;50.874;3.656;2023-07-13T09:18:41;21.80;99.90
21047;DHT22;10682;50.874;3.656;2023-07-13T09:21:21;22.10;99.90
21047;DHT22;10682;50.874;3.656;2023-07-13T09:23:54;22.20;99.90
21047;DHT22;10682;50.874;3.656;2023-07-13T09:26:28;22.10;99.90
21047;DHT22;10682;50.874;3.656;2023-07-13T09:29:13;21.90;99.90
21047;DHT22;10682;50.874;3.656;2023-07-13T09:31:49;21.60;99.90
21047;DHT22;10682;50.874;3.656;2023-07-13T09:34:20;21.60;99.90
21047;DHT22;10682;50.874;3.656;2023-07-13T09:36:47;21.70;99.90
21047;DHT22;10682;50.874;3.656;2023-07-13T09:44:56;22.40;99.90
21047;DHT22;10682;50.874;3.656;2023-07-13T09:47:31;22.50;99.90
21047;DHT22;10682;50.874;3.656;2023-07-13T09:50:15;22.30;99.90
21047;DHT22;10682;50.874;3.656;2023-07-13T09:52:46;21.90;99.90
21047;DHT22;10682;50.874;3.656;2023-07-13T09:57:56;22.20;99.90
21047;DHT22;10682;50.874;3.656;2023-07-13T10:00:29;22.50;99.90
21047;DHT22;10682;50.874;3.656;2023-07-13T10:03:05;22.60;99.90
21047;DHT22;10682;50.874;3.656;2023-07-13T10:05:45;22.70;99.90
21047;DHT22;10682;50.874;3.656;2023-07-13T10:08:29;22.90;99.90
21047;DHT22;10682;50.874;3.656;2023-07-13T10:11:08;23.10;99.90
21047;DHT22;10682;50.874;3.656;2023-07-13T10:13:55;22.80;99.90
21047;DHT22;10682;50.874;3.656;2023-07-13T10:16:25;22.90;99.90
21047;DHT22;10682;50.874;3.656;2023-07-13T10:21:49;22.90;99.90
21047;DHT22;10682;50.874;3.656;2023-07-13T10:24:31;23.30;99.90
21047;DHT22;10682;50.874;3.656;2023-07-13T10:27:15;23.40;99.90
21047;DHT22;10682;50.874;3.656;2023-07-13T10:32:52;23.20;99.90
21047;DHT22;10682;50.874;3.656;2023-07-13T10:35:21;23.40;99.90
21047;DHT22;10682;50.874;3.656;2023-07-13T10:38:04;23.50;99.90
21047;DHT22;10682;50.874;3.656;2023-07-13T10:40:39;23.90;99.90
21047;DHT22;10682;50.874;3.656;2023-07-13T10:43:33;24.30;99.90
21047;DHT22;10682;50.874;3.656;2023-07-13T10:46:05;24.60;99.90
21047;DHT22;10682;50.874;3.656;2023-07-13T10:48:36;24.60;99.90
21047;DHT22;10682;50.874;3.656;2023-07-13T10:51:05;23.90;99.90
21047;DHT22;10682;50.874;3.656;2023-07-13T10:53:35;23.50;99.90
21047;DHT22;10682;50.874;3.656;2023-07-13T10:56:48;23.10;99.90
21047;DHT22;10682;50.874;3.656;2023-07-13T11:02:08;21.60;99.90
21047;DHT22;10682;50.874;3.656;2023-07-13T11:04:44;20.70;99.90
21047;DHT22;10682;50.874;3.656;2023-07-13T11:07:29;20.20;99.90
21047;DHT22;10682;50.874;3.656;2023-07-13T11:10:02;19.80;99.90
21047;DHT22;10682;50.874;3.656;2023-07-13T11:15:43;19.30;99.90
21047;DHT22;10682;50.874;3.656;2023-07-13T11:18:22;19.40;99.90
21047;DHT22;10682;50.874;3.656;2023-07-13T11:20:52;19.40;99.90
21047;DHT22;10682;50.874;3.656;2023-07-13T11:24:13;19.60;99.90
21047;DHT22;10682;50.874;3.656;2023-07-13T11:29:33;19.70;99.90
21047;DHT22;10682;50.874;3.656;2023-07-13T11:32:24;19.80;99.90
21047;DHT22;10682;50.874;3.656;2023-07-13T11:34:54;19.90;99.90
21047;DHT22;10682;50.874;3.656;2023-07-13T11:37:22;20.20;99.90
21047;DHT22;10682;50.874;3.656;2023-07-13T11:39:51;20.50;99.90
21047;DHT22;10682;50.874;3.656;2023-07-13T11:42:20;20.80;99.90
21047;DHT22;10682;50.874;3.656;2023-07-13T11:44:49;21.00;99.90
21047;DHT22;10682;50.874;3.656;2023-07-13T11:47:40;21.30;99.90
21047;DHT22;10682;50.874;3.656;2023-07-13T11:50:21;21.70;99.90
21047;DHT22;10682;50.874;3.656;2023-07-13T11:52:51;21.70;99.90
21047;DHT22;10682;50.874;3.656;2023-07-13T11:55:22;21.60;99.90
21047;DHT22;10682;50.874;3.656;2023-07-13T11:57:56;21.60;99.90
21047;DHT22;10682;50.874;3.656;2023-07-13T12:00:30;22.10;99.90
21047;DHT22;10682;50.874;3.656;2023-07-13T12:03:02;22.80;99.90
21047;DHT22;10682;50.874;3.656;2023-07-13T12:05:31;23.20;99.90
21047;DHT22;10682;50.874;3.656;2023-07-13T12:07:58;23.40;99.90
21047;DHT22;10682;50.874;3.656;2023-07-13T12:10:30;23.00;99.90
21047;DHT22;10682;50.874;3.656;2023-07-13T12:13:09;22.70;99.90
21047;DHT22;10682;50.874;3.656;2023-07-13T12:15:43;22.70;99.90
21047;DHT22;10682;50.874;3.656;2023-07-13T12:18:21;23.00;99.90
21047;DHT22;10682;50.874;3.656;2023-07-13T12:20:50;23.00;99.90
21047;DHT22;10682;50.874;3.656;2023-07-13T12:25:52;22.50;99.90
21047;DHT22;10682;50.874;3.656;2023-07-13T12:28:21;22.40;99.90
21047;DHT22;10682;50.874;3.656;2023-07-13T12:30:49;22.30;99.90
21047;DHT22;10682;50.874;3.656;2023-07-13T12:33:16;22.30;99.90
21047;DHT22;10682;50.874;3.656;2023-07-13T12:35:50;22.20;99.90
21047;DHT22;10682;50.874;3.656;2023-07-13T12:38:19;22.20;99.90
21047;DHT22;10682;50.874;3.656;2023-07-13T12:40:52;22.30;99.90
21047;DHT22;10682;50.874;3.656;2023-07-13T12:43:22;22.50;99.90
21047;DHT22;10682;50.874;3.656;2023-07-13T12:48:25;23.50;99.90
21047;DHT22;10682;50.874;3.656;2023-07-13T12:51:10;23.70;99.90
21047;DHT22;10682;50.874;3.656;2023-07-13T12:53:50;23.80;99.90
21047;DHT22;10682;50.874;3.656;2023-07-13T12:56:24;24.10;99.90
21047;DHT22;10682;50.874;3.656;2023-07-13T12:58:58;24.40;99.90
21047;DHT22;10682;50.874;3.656;2023-07-13T13:01:29;24.70;99.90
21047;DHT22;10682;50.874;3.656;2023-07-13T13:04:01;25.10;99.90
21047;DHT22;10682;50.874;3.656;2023-07-13T13:06:40;25.10;99.90
21047;DHT22;10682;50.874;3.656;2023-07-13T13:09:15;24.90;99.90
21047;DHT22;10682;50.874;3.656;2023-07-13T13:11:42;24.30;99.90
21047;DHT22;10682;50.874;3.656;2023-07-13T13:14:10;24.10;99.90
21047;DHT22;10682;50.874;3.656;2023-07-13T13:16:48;24.10;99.90
21047;DHT22;10682;50.874;3.656;2023-07-13T13:19:21;24.20;99.90
21047;DHT22;10682;50.874;3.656;2023-07-13T13:21:51;24.40;99.90
21047;DHT22;10682;50.874;3.656;2023-07-13T13:24:22;24.40;99.90
21047;DHT22;10682;50.874;3.656;2023-07-13T13:26:53;24.60;99.90
21047;DHT22;10682;50.874;3.656;2023-07-13T13:29:23;24.50;99.90
21047;DHT22;10682;50.874;3.656;2023-07-13T13:31:54;24.70;99.90
21047;DHT22;10682;50.874;3.656;2023-07-13T13:34:23;25.00;99.90
21047;DHT22;10682;50.874;3.656;2023-07-13T13:36:52;25.00;99.90
21047;DHT22;10682;50.874;3.656;2023-07-13T13:39:35;25.20;99.90
21047;DHT22;10682;50.874;3.656;2023-07-13T13:42:04;25.20;99.90
21047;DHT22;10682;50.874;3.656;2023-07-13T13:44:31;25.00;99.90
21047;DHT22;10682;50.874;3.656;2023-07-13T13:46:58;24.90;99.90
21047;DHT22;10682;50.874;3.656;2023-07-13T13:49:27;24.70;99.90
21047;DHT22;10682;50.874;3.656;2023-07-13T13:51:55;24.70;99.90
21047;DHT22;10682;50.874;3.656;2023-07-13T13:54:24;24.90;99.90
21047;DHT22;10682;50.874;3.656;2023-07-13T13:56:52;25.10;99.90
21047;DHT22;10682;50.874;3.656;2023-07-13T13:59:20;25.30;99.90
21047;DHT22;10682;50.874;3.656;2023-07-13T14:01:48;25.60;99.90
21047;DHT22;10682;50.874;3.656;2023-07-13T14:04:21;25.70;99.90
21047;DHT22;10682;50.874;3.656;2023-07-13T14:06:49;25.70;99.90
21047;DHT22;10682;50.874;3.656;2023-07-13T14:09:18;25.70;99.90
21047;DHT22;10682;50.874;3.656;2023-07-13T14:11:47;25.40;99.90
21047;DHT22;10682;50.874;3.656;2023-07-13T14:14:20;25.40;99.90
21047;DHT22;10682;50.874;3.656;2023-07-13T14:16:50;25.40;99.90
21047;DHT22;10682;50.874;3.656;2023-07-13T14:19:22;25.40;99.90
21047;DHT22;10682;50.874;3.656;2023-07-13T14:21:50;25.20;99.90
21047;DHT22;10682;50.874;3.656;2023-07-13T14:24:20;25.30;99.90
21047;DHT22;10682;50.874;3.656;2023-07-13T14:26:48;25.30;99.90
21047;DHT22;10682;50.874;3.656;2023-07-13T14:29:17;25.50;99.90
21047;DHT22;10682;50.874;3.656;2023-07-13T14:31:50;25.40;99.90
21047;DHT22;10682;50.874;3.656;2023-07-13T14:34:18;25.60;99.90
21047;DHT22;10682;50.874;3.656;2023-07-13T14:36:48;25.50;99.90
21047;DHT22;10682;50.874;3.656;2023-07-13T14:39:19;25.20;99.90
21047;DHT22;10682;50.874;3.656;2023-07-13T14:41:54;24.80;99.90
21047;DHT22;10682;50.874;3.656;2023-07-13T14:44:26;24.70;99.90
21047;DHT22;10682;50.874;3.656;2023-07-13T14:47:00;24.70;99.90
21047;DHT22;10682;50.874;3.656;2023-07-13T14:49:36;24.80;99.90
21047;DHT22;10682;50.874;3.656;2023-07-13T14:52:19;24.80;99.90
21047;DHT22;10682;50.874;3.656;2023-07-13T14:54:47;24.90;99.90
21047;DHT22;10682;50.874;3.656;2023-07-13T14:57:17;24.70;99.90
21047;DHT22;10682;50.874;3.656;2023-07-13T14:59:48;24.40;99.90
21047;DHT22;10682;50.874;3.656;2023-07-13T15:02:29;24.20;99.90
21047;DHT22;10682;50.874;3.656;2023-07-13T15:05:00;24.10;99.90
21047;DHT22;10682;50.874;3.656;2023-07-13T15:07:28;24.20;99.90
21047;DHT22;10682;50.874;3.656;2023-07-13T15:09:55;24.60;99.90
21047;DHT22;10682;50.874;3.656;2023-07-13T15:12:22;24.90;99.90
21047;DHT22;10682;50.874;3.656;2023-07-13T15:14:49;25.10;99.90
21047;DHT22;10682;50.874;3.656;2023-07-13T15:22:46;25.30;99.90
21047;DHT22;10682;50.874;3.656;2023-07-13T15:25:17;25.20;99.90
21047;DHT22;10682;50.874;3.656;2023-07-13T15:27:46;24.90;99.90
21047;DHT22;10682;50.874;3.656;2023-07-13T15:30:14;24.70;99.90
21047;DHT22;10682;50.874;3.656;2023-07-13T15:32:43;24.40;99.90
21047;DHT22;10682;50.874;3.656;2023-07-13T15:35:28;24.40;99.90
21047;DHT22;10682;50.874;3.656;2023-07-13T15:37:56;24.50;99.90
21047;DHT22;10682;50.874;3.656;2023-07-13T15:40:23;24.50;99.90
21047;DHT22;10682;50.874;3.656;2023-07-13T15:42:52;24.60;99.90
21047;DHT22;10682;50.874;3.656;2023-07-13T15:45:23;24.90;99.90
21047;DHT22;10682;50.874;3.656;2023-07-13T15:47:54;25.10;99.90
21047;DHT22;10682;50.874;3.656;2023-07-13T15:50:24;25.20;99.90
21047;DHT22;10682;50.874;3.656;2023-07-13T15:52:53;24.80;99.90
21047;DHT22;10682;50.874;3.656;2023-07-13T15:55:22;24.50;99.90
21047;DHT22;10682;50.874;3.656;2023-07-13T15:57:51;24.60;99.90
21047;DHT22;10682;50.874;3.656;2023-07-13T16:00:26;24.80;99.90
21047;DHT22;10682;50.874;3.656;2023-07-13T16:02:53;24.90;99.90
21047;DHT22;10682;50.874;3.656;2023-07-13T16:05:22;24.70;99.90
21047;DHT22;10682;50.874;3.656;2023-07-13T16:07:51;24.40;99.90
21047;DHT22;10682;50.874;3.656;2023-07-13T16:10:25;24.40;99.90
21047;DHT22;10682;50.874;3.656;2023-07-13T16:12:57;24.60;99.90
21047;DHT22;10682;50.874;3.656;2023-07-13T16:15:25;24.60;99.90
21047;DHT22;10682;50.874;3.656;2023-07-13T16:17:52;24.50;99.90
21047;DHT22;10682;50.874;3.656;2023-07-13T16:20:21;24.50;99.90
21047;DHT22;10682;50.874;3.656;2023-07-13T16:22:54;24.60;99.90
21047;DHT22;10682;50.874;3.656;2023-07-13T16:25:24;24.70;99.90
21047;DHT22;10682;50.874;3.656;2023-07-13T16:27:53;24.60;99.90
21047;DHT22;10682;50.874;3.656;2023-07-13T16:30:29;24.40;99.90
21047;DHT22;10682;50.874;3.656;2023-07-13T16:33:00;24.40;99.90